Time;durP1;ratioP1;P1;durP2;ratioP2;P2;SDS_P1;SDS_P2;PMS_P1;PMS_P2;Temp;Humidity;BMP_temperature;BMP_pressure;BME280_temperature;BME280_humidity;BME280_pressure;Samples;Min_cycle;Max_cycle;Signal;HPM_P1;HPM_P2
2021/07/27 00:02:57;;;;;;;24.13;10.48;;;22.20;99.90;;;;;;11989664;28;20063;-77
2021/07/27 00:08:45;;;;;;;14.90;9.73;;;22.10;99.90;;;;;;11999032;28;20048;-77
2021/07/27 00:14:32;;;;;;;16.30;9.82;;;22.10;99.90;;;;;;11992193;28;20057;-78
2021/07/27 00:20:19;;;;;;;21.23;9.40;;;22.10;99.90;;;;;;11987439;28;20053;-77
2021/07/27 00:26:13;;;;;;;15.13;8.80;;;22.10;99.90;;;;;;11999189;28;20527;-77
2021/07/27 00:32:00;;;;;;;12.98;8.82;;;22.10;99.90;;;;;;11999439;28;20049;-77
2021/07/27 00:37:57;;;;;;;17.23;9.25;;;22.10;99.90;;;;;;11999635;28;20064;-77
2021/07/27 00:43:45;;;;;;;15.27;9.77;;;22.10;99.90;;;;;;11998779;28;20143;-77
2021/07/27 00:49:32;;;;;;;15.48;8.88;;;22.00;99.90;;;;;;11995896;28;20076;-76
2021/07/27 00:55:19;;;;;;;13.55;9.50;;;22.00;99.90;;;;;;11998166;28;20060;-77
2021/07/27 01:01:07;;;;;;;18.48;10.35;;;21.90;99.90;;;;;;12003220;28;20052;-77
2021/07/27 01:06:54;;;;;;;13.73;9.75;;;21.90;99.90;;;;;;12000680;28;20065;-78
2021/07/27 01:12:41;;;;;;;17.30;10.55;;;21.90;99.90;;;;;;12006847;28;20060;-77
2021/07/27 01:18:36;;;;;;;14.18;9.48;;;21.80;99.90;;;;;;12000857;28;20483;-77
2021/07/27 01:42:50;;;;;;;15.57;8.90;;;21.80;99.90;;;;;;11847845;28;20054;-77
2021/07/27 01:48:38;;;;;;;17.45;9.48;;;21.80;99.90;;;;;;11865442;28;20104;-78
2021/07/27 01:54:40;;;;;;;19.60;9.65;;;21.80;99.90;;;;;;11852813;28;20140;-77
2021/07/27 02:00:28;;;;;;;12.88;9.23;;;21.90;99.90;;;;;;11856483;28;20053;-78
2021/07/27 02:06:16;;;;;;;13.68;9.20;;;21.80;99.90;;;;;;11972737;28;20060;-78
2021/07/27 02:12:03;;;;;;;16.50;9.02;;;21.80;99.90;;;;;;11950172;28;20053;-77
2021/07/27 02:17:52;;;;;;;20.70;9.32;;;21.80;99.90;;;;;;11983243;28;20131;-77
2021/07/27 02:23:39;;;;;;;14.30;8.60;;;21.80;99.90;;;;;;11999259;28;20068;-77
2021/07/27 02:29:26;;;;;;;16.85;9.48;;;21.80;99.90;;;;;;11995398;28;20053;-77
2021/07/27 02:35:14;;;;;;;22.23;9.88;;;21.90;99.90;;;;;;11996818;28;20048;-77
2021/07/27 02:41:01;;;;;;;19.15;9.77;;;21.90;99.90;;;;;;12003437;28;20446;-77
2021/07/27 02:46:50;;;;;;;15.50;9.77;;;21.90;99.90;;;;;;11996888;28;20057;-77
2021/07/27 02:52:38;;;;;;;13.50;9.68;;;21.90;99.90;;;;;;11995773;28;20058;-77
2021/07/27 02:58:31;;;;;;;18.23;9.50;;;21.80;99.90;;;;;;12000508;28;20041;-77
2021/07/27 03:04:18;;;;;;;16.02;8.55;;;21.70;99.90;;;;;;11999554;28;20052;-77
2021/07/27 03:10:20;;;;;;;23.95;9.65;;;21.80;99.90;;;;;;12001806;28;20059;-78
2021/07/27 03:16:07;;;;;;;20.25;10.20;;;21.80;99.90;;;;;;11994680;28;20060;-77
2021/07/27 03:21:54;;;;;;;14.43;10.18;;;21.80;99.90;;;;;;11997101;28;20044;-76
2021/07/27 06:51:48;;;;;;;16.40;10.52;;;20.40;99.90;;;;;;11958585;27;20382;-66
2021/07/27 06:57:34;;;;;;;20.85;10.98;;;20.70;99.90;;;;;;11942153;28;20425;-66
2021/07/27 07:03:22;;;;;;;15.98;10.60;;;21.20;99.90;;;;;;11924406;28;20045;-66
2021/07/27 07:09:10;;;;;;;20.10;11.10;;;21.50;99.90;;;;;;11923453;28;20058;-66
2021/07/27 07:14:59;;;;;;;20.50;10.70;;;21.70;99.90;;;;;;11943516;28;20100;-66
2021/07/27 07:20:47;;;;;;;16.35;10.02;;;21.90;99.90;;;;;;11955209;28;20458;-66
2021/07/27 07:26:35;;;;;;;17.98;10.15;;;22.10;99.90;;;;;;11931567;28;20052;-66
2021/07/27 07:32:22;;;;;;;16.73;10.35;;;22.10;99.90;;;;;;11938668;28;20508;-66
2021/07/27 07:38:09;;;;;;;15.25;10.07;;;22.30;99.90;;;;;;11948966;28;20050;-66
2021/07/27 07:43:57;;;;;;;18.75;10.80;;;22.50;99.90;;;;;;11943726;28;20054;-65
2021/07/27 07:49:44;;;;;;;19.25;9.70;;;22.60;99.90;;;;;;11949688;28;20373;-67
2021/07/27 07:55:31;;;;;;;16.98;9.63;;;22.60;99.90;;;;;;11924475;28;20054;-66
2021/07/27 08:01:19;;;;;;;17.83;9.70;;;22.50;99.90;;;;;;11907569;28;20057;-66
2021/07/27 08:07:07;;;;;;;12.60;9.65;;;22.30;99.90;;;;;;11890721;28;20053;-66
2021/07/27 08:12:54;;;;;;;15.05;9.85;;;22.50;99.90;;;;;;11915541;28;20054;-67
2021/07/27 08:18:42;;;;;;;16.80;9.93;;;22.40;99.90;;;;;;11894999;28;20042;-66
2021/07/27 08:24:31;;;;;;;19.48;9.90;;;22.40;99.90;;;;;;11891197;28;20365;-66
2021/07/27 08:30:18;;;;;;;16.17;10.43;;;22.40;99.90;;;;;;11885617;28;20115;-67
2021/07/27 08:36:07;;;;;;;18.75;10.55;;;22.30;99.90;;;;;;11878212;28;20046;-66
2021/07/27 08:41:56;;;;;;;18.38;10.88;;;22.30;99.90;;;;;;11888948;28;20060;-66
2021/07/27 08:47:46;;;;;;;16.65;10.50;;;22.20;99.90;;;;;;11903279;28;20050;-66
2021/07/27 08:53:34;;;;;;;24.35;11.77;;;22.10;99.90;;;;;;11898217;28;20045;-66
2021/07/27 08:59:22;;;;;;;17.17;11.70;;;22.10;99.90;;;;;;11915945;28;20429;-66
2021/07/27 09:05:11;;;;;;;17.40;11.23;;;22.10;99.90;;;;;;11906028;28;20073;-66
2021/07/27 09:11:02;;;;;;;17.42;11.60;;;22.20;99.90;;;;;;11909597;28;20051;-62
2021/07/27 09:16:51;;;;;;;16.42;11.00;;;22.20;99.90;;;;;;11910477;28;20085;-65
2021/07/27 09:22:44;;;;;;;17.70;12.68;;;22.30;99.90;;;;;;11905622;28;20111;-60
2021/07/27 09:28:32;;;;;;;19.88;13.05;;;22.30;99.90;;;;;;11909953;28;21463;-60
2021/07/27 09:34:20;;;;;;;20.20;12.93;;;22.40;99.90;;;;;;11915870;28;20042;-64
2021/07/27 09:40:07;;;;;;;20.77;12.25;;;22.40;99.90;;;;;;11898570;28;20088;-64
2021/07/27 09:46:00;;;;;;;18.45;12.32;;;22.50;99.90;;;;;;11903851;28;20422;-62
2021/07/27 09:51:47;;;;;;;21.33;12.27;;;22.30;99.90;;;;;;11832535;28;20064;-63
2021/07/27 09:57:34;;;;;;;17.60;11.90;;;22.40;99.90;;;;;;11827837;28;20073;-63
2021/07/27 10:03:24;;;;;;;18.85;12.38;;;22.50;99.90;;;;;;11829637;28;20046;-64
2021/07/27 10:09:22;;;;;;;19.77;12.23;;;22.40;99.90;;;;;;11821758;28;20695;-63
2021/07/27 10:15:11;;;;;;;16.52;11.65;;;22.20;99.90;;;;;;11826738;28;20062;-63
2021/07/27 10:21:23;;;;;;;16.33;11.70;;;22.10;99.90;;;;;;11827780;28;20074;-63
2021/07/27 10:27:16;;;;;;;18.00;11.50;;;22.00;99.90;;;;;;11816056;28;20078;-63
2021/07/27 10:33:03;;;;;;;17.67;11.88;;;22.10;99.90;;;;;;11817541;28;20468;-61
2021/07/27 10:38:51;;;;;;;18.75;11.75;;;22.10;99.90;;;;;;11831458;28;20065;-63
2021/07/27 10:44:38;;;;;;;19.60;11.15;;;22.00;99.90;;;;;;11828528;28;20051;-62
2021/07/27 10:50:27;;;;;;;17.23;10.52;;;22.00;99.90;;;;;;11890150;28;20448;-63
2021/07/27 10:56:17;;;;;;;16.90;10.68;;;22.10;99.90;;;;;;11897192;28;20054;-64
2021/07/27 11:02:11;;;;;;;14.88;11.55;;;22.20;99.90;;;;;;11910039;28;20096;-63
2021/07/27 11:07:58;;;;;;;17.35;10.77;;;22.30;99.90;;;;;;11907111;28;20965;-60
2021/07/27 11:13:54;;;;;;;18.35;10.77;;;22.60;99.90;;;;;;11908936;28;20046;-63
2021/07/27 11:19:46;;;;;;;14.93;10.48;;;22.70;99.90;;;;;;11882418;28;20045;-63
2021/07/27 11:25:33;;;;;;;15.25;10.38;;;22.80;99.90;;;;;;11890421;28;20054;-64
2021/07/27 11:31:22;;;;;;;19.63;10.57;;;22.80;99.90;;;;;;11880686;28;20077;-63
2021/07/27 11:37:09;;;;;;;17.88;11.48;;;22.70;99.90;;;;;;11920725;28;20489;-62
2021/07/27 11:43:04;;;;;;;16.90;10.88;;;22.40;99.90;;;;;;11909987;28;20108;-64
2021/07/27 11:48:55;;;;;;;16.25;11.88;;;22.50;99.90;;;;;;11887038;28;20089;-63
2021/07/27 11:54:42;;;;;;;15.38;10.63;;;22.70;99.90;;;;;;11910904;28;20046;-64
2021/07/27 12:00:32;;;;;;;14.07;10.90;;;22.80;99.90;;;;;;11917245;28;20077;-63
2021/07/27 12:06:20;;;;;;;13.25;10.07;;;22.80;99.90;;;;;;11903202;28;20532;-65
2021/07/27 12:12:08;;;;;;;12.13;9.13;;;22.70;99.90;;;;;;11916518;28;20061;-65
2021/07/27 12:17:54;;;;;;;14.35;9.65;;;22.60;99.90;;;;;;11884375;28;20133;-65
2021/07/27 12:23:43;;;;;;;13.68;10.75;;;22.70;99.90;;;;;;11904045;28;20533;-63
2021/07/27 12:29:30;;;;;;;14.65;11.10;;;22.60;99.90;;;;;;11897447;28;20101;-64
2021/07/27 12:35:17;;;;;;;17.35;11.00;;;22.70;99.90;;;;;;11920600;28;20054;-65
2021/07/27 12:41:08;;;;;;;12.13;8.25;;;22.80;99.90;;;;;;11898592;28;20124;-64
2021/07/27 12:46:58;;;;;;;12.25;6.70;;;22.70;99.90;;;;;;11906892;28;20501;-65
2021/07/27 12:52:44;;;;;;;9.60;5.80;;;22.70;99.90;;;;;;11903533;28;20045;-64
2021/07/27 12:58:33;;;;;;;8.38;5.22;;;22.80;99.90;;;;;;11911584;28;20049;-65
2021/07/27 13:04:20;;;;;;;6.55;4.80;;;23.10;99.90;;;;;;11885512;28;20437;-65
2021/07/27 13:10:08;;;;;;;6.20;4.93;;;23.40;99.90;;;;;;11928518;28;20171;-64
2021/07/27 13:16:00;;;;;;;8.55;5.68;;;23.70;99.90;;;;;;11930162;28;20048;-64
2021/07/27 13:21:47;;;;;;;8.70;5.38;;;24.00;99.90;;;;;;11915232;28;20061;-64
2021/07/27 13:27:37;;;;;;;9.88;6.82;;;24.30;99.90;;;;;;11923334;28;20049;-64
2021/07/27 13:33:25;;;;;;;12.48;6.65;;;24.40;99.90;;;;;;11945849;28;20091;-64
2021/07/27 13:39:12;;;;;;;9.35;6.32;;;24.30;99.90;;;;;;11931726;28;20184;-64
2021/07/27 13:44:59;;;;;;;10.10;6.57;;;24.30;99.90;;;;;;11925787;28;20046;-65
2021/07/27 13:50:47;;;;;;;10.20;6.75;;;24.00;99.90;;;;;;11924819;28;20050;-66
2021/07/27 13:56:34;;;;;;;11.93;7.38;;;23.80;99.90;;;;;;11924496;28;20056;-66
2021/07/27 14:02:21;;;;;;;13.80;9.13;;;23.80;99.90;;;;;;11924168;28;20447;-65
2021/07/27 14:08:09;;;;;;;13.43;7.95;;;23.60;99.90;;;;;;11908412;28;20054;-64
2021/07/27 14:19:58;;;;;;;15.63;10.20;;;23.20;99.90;;;;;;11893636;28;20050;-64
2021/07/27 14:25:46;;;;;;;15.40;10.65;;;23.00;99.90;;;;;;11890188;28;20042;-65
2021/07/27 14:31:33;;;;;;;19.25;12.10;;;22.80;99.90;;;;;;11893735;28;20121;-64
2021/07/27 14:37:19;;;;;;;56.40;14.38;;;22.60;99.90;;;;;;11890095;28;20421;-64
2021/07/27 14:43:08;;;;;;;17.77;11.98;;;22.30;99.90;;;;;;11892913;28;20045;-63
2021/07/27 14:48:56;;;;;;;16.88;10.43;;;21.70;99.90;;;;;;11893742;28;20517;-63
2021/07/27 14:54:42;;;;;;;12.27;8.52;;;21.90;99.90;;;;;;11890624;28;20042;-64
2021/07/27 15:00:31;;;;;;;13.68;8.95;;;22.60;99.90;;;;;;11891763;28;20049;-63
2021/07/27 15:06:20;;;;;;;15.35;9.48;;;23.20;99.90;;;;;;11888655;28;20049;-64
2021/07/27 15:12:07;;;;;;;14.52;8.50;;;23.10;99.90;;;;;;11897430;28;20061;-63
2021/07/27 15:17:55;;;;;;;11.45;8.57;;;23.10;99.90;;;;;;11902783;28;20049;-63
2021/07/27 15:23:44;;;;;;;14.25;9.70;;;23.00;99.90;;;;;;11897703;28;20054;-65
2021/07/27 15:29:31;;;;;;;14.27;8.05;;;22.80;99.90;;;;;;11896761;28;20628;-65
2021/07/27 15:35:20;;;;;;;14.50;7.80;;;23.10;99.90;;;;;;11900481;28;20508;-64
2021/07/27 15:41:09;;;;;;;13.15;7.55;;;23.40;99.90;;;;;;11891622;28;20058;-65
2021/07/27 15:46:56;;;;;;;14.88;7.45;;;23.60;99.90;;;;;;11897313;28;20115;-65
2021/07/27 15:52:44;;;;;;;12.55;7.13;;;24.10;99.90;;;;;;11876465;28;20053;-66
2021/07/27 15:58:31;;;;;;;12.40;7.57;;;24.20;99.90;;;;;;11906670;28;20391;-66
2021/07/27 16:04:18;;;;;;;10.90;6.95;;;24.00;99.90;;;;;;11920094;28;20054;-67
2021/07/27 16:10:08;;;;;;;11.18;7.35;;;23.60;99.90;;;;;;11910514;28;20046;-67
2021/07/27 16:15:55;;;;;;;11.50;7.18;;;23.10;99.90;;;;;;11914599;28;20042;-66
2021/07/27 16:21:42;;;;;;;12.32;7.88;;;22.90;99.90;;;;;;11903082;28;20138;-66
2021/07/27 16:27:32;;;;;;;12.73;7.75;;;22.80;99.90;;;;;;11931749;28;20065;-66
2021/07/27 16:33:19;;;;;;;12.00;7.88;;;22.70;99.90;;;;;;11919261;28;20143;-66
2021/07/27 16:39:15;;;;;;;12.45;7.05;;;22.70;99.90;;;;;;11919875;28;20038;-66
2021/07/27 16:45:04;;;;;;;8.48;5.00;;;22.70;99.90;;;;;;11950548;28;20049;-65
2021/07/27 16:50:51;;;;;;;9.27;5.82;;;24.10;99.90;;;;;;11936187;28;20042;-64
2021/07/27 16:56:38;;;;;;;9.35;6.10;;;24.50;99.90;;;;;;11914215;28;20050;-64
2021/07/27 17:02:26;;;;;;;10.93;6.20;;;24.00;99.90;;;;;;11946834;28;20141;-64
2021/07/27 17:08:14;;;;;;;8.25;5.82;;;23.60;99.90;;;;;;11897570;28;20053;-65
2021/07/27 17:14:01;;;;;;;9.52;6.88;;;23.10;99.90;;;;;;11878170;28;20058;-64
2021/07/27 17:19:49;;;;;;;9.70;7.07;;;22.90;99.90;;;;;;11882499;28;20354;-64
2021/07/27 17:25:37;;;;;;;8.70;6.75;;;22.90;99.90;;;;;;11898558;28;20059;-64
2021/07/27 17:31:24;;;;;;;10.75;6.55;;;23.50;99.90;;;;;;11914370;28;20061;-65
2021/07/27 17:37:12;;;;;;;11.57;7.75;;;24.00;99.90;;;;;;11920543;28;20054;-64
2021/07/27 17:42:59;;;;;;;12.10;7.70;;;23.80;99.90;;;;;;11927836;28;20064;-65
2021/07/27 17:48:46;;;;;;;15.25;7.53;;;23.30;99.90;;;;;;11907875;28;21309;-65
2021/07/27 17:54:34;;;;;;;11.25;8.32;;;23.10;99.90;;;;;;11879624;28;20045;-65
2021/07/27 18:00:21;;;;;;;11.32;7.88;;;23.00;99.90;;;;;;11889343;28;20054;-65
2021/07/27 18:06:09;;;;;;;11.98;9.10;;;23.40;99.90;;;;;;11902239;28;20557;-64
2021/07/27 18:11:57;;;;;;;15.95;9.88;;;24.60;99.90;;;;;;11922759;28;20049;-64
2021/07/27 18:17:44;;;;;;;15.48;9.30;;;24.20;99.90;;;;;;11878769;28;20543;-64
2021/07/27 18:23:31;;;;;;;12.05;8.32;;;23.80;99.90;;;;;;11880976;28;20053;-63
2021/07/27 18:29:19;;;;;;;12.60;7.43;;;23.40;99.90;;;;;;11882580;28;20057;-65
2021/07/27 18:35:10;;;;;;;9.65;6.30;;;23.30;99.90;;;;;;11926649;28;20049;-64
2021/07/27 18:40:57;;;;;;;9.40;6.45;;;23.60;99.90;;;;;;11893176;28;20133;-64
2021/07/27 18:46:45;;;;;;;7.22;5.85;;;23.40;99.90;;;;;;11909732;28;20080;-64
2021/07/27 18:52:38;;;;;;;17.67;10.40;;;23.60;99.90;;;;;;11905842;28;20041;-64
2021/07/27 18:58:27;;;;;;;11.88;6.88;;;23.70;99.90;;;;;;11914813;28;20132;-65
2021/07/27 19:04:15;;;;;;;11.48;7.85;;;23.50;99.90;;;;;;11860398;28;20120;-63
2021/07/27 19:10:03;;;;;;;13.13;8.90;;;23.20;99.90;;;;;;11904780;28;20476;-64
2021/07/27 19:15:52;;;;;;;9.48;7.50;;;22.90;99.90;;;;;;11910954;28;20061;-64
2021/07/27 19:21:40;;;;;;;10.65;7.70;;;22.80;99.90;;;;;;11919274;28;20052;-64
2021/07/27 19:27:27;;;;;;;12.40;7.88;;;22.60;99.90;;;;;;11910618;28;20046;-64
2021/07/27 19:33:14;;;;;;;16.95;8.75;;;22.50;99.90;;;;;;11900012;28;20053;-63
2021/07/27 19:39:02;;;;;;;17.40;8.38;;;22.40;99.90;;;;;;11899041;28;20057;-63
2021/07/27 19:44:53;;;;;;;15.57;8.75;;;22.30;99.90;;;;;;11893722;28;20056;-64
2021/07/27 19:50:41;;;;;;;15.65;8.20;;;22.30;99.90;;;;;;11923764;28;20148;-65
2021/07/27 19:56:29;;;;;;;16.08;9.23;;;22.30;99.90;;;;;;11945714;28;20049;-66
2021/07/27 20:02:16;;;;;;;19.73;9.55;;;22.30;99.90;;;;;;11950535;28;20561;-65
2021/07/27 20:08:04;;;;;;;17.52;11.20;;;22.20;99.90;;;;;;11937461;28;20065;-64
2021/07/27 20:13:53;;;;;;;20.13;11.57;;;22.10;99.90;;;;;;11911101;28;20065;-64
2021/07/27 20:19:39;;;;;;;21.88;12.07;;;22.10;99.90;;;;;;11889875;28;20049;-65
2021/07/27 20:25:26;;;;;;;17.70;11.32;;;22.00;99.90;;;;;;11895531;28;20053;-65
2021/07/27 20:31:15;;;;;;;19.33;11.85;;;22.00;99.90;;;;;;11911364;28;20543;-64
2021/07/27 20:37:02;;;;;;;19.48;11.48;;;22.00;99.90;;;;;;11865459;28;20046;-65
2021/07/27 20:42:49;;;;;;;19.98;11.48;;;22.00;99.90;;;;;;11878959;28;20050;-64
2021/07/27 20:48:38;;;;;;;18.08;11.00;;;22.00;99.90;;;;;;11905505;28;20188;-65
2021/07/27 20:54:24;;;;;;;19.08;10.07;;;22.00;99.90;;;;;;11889707;28;20045;-64
2021/07/27 21:00:12;;;;;;;18.60;10.43;;;22.00;99.90;;;;;;11883386;28;20510;-63
2021/07/27 21:06:01;;;;;;;22.75;10.88;;;21.90;99.90;;;;;;11936659;28;20054;-64
2021/07/27 21:11:47;;;;;;;14.70;10.27;;;21.90;99.90;;;;;;11866008;28;20046;-64
2021/07/27 21:17:34;;;;;;;16.20;11.50;;;21.90;99.90;;;;;;11881689;28;20089;-63
2021/07/27 21:23:23;;;;;;;16.73;12.32;;;21.80;99.90;;;;;;11912219;28;20152;-65
2021/07/27 21:29:10;;;;;;;19.98;11.43;;;21.70;99.90;;;;;;11922068;28;21062;-66
2021/07/27 21:34:57;;;;;;;24.55;10.43;;;21.60;99.90;;;;;;11905926;28;20076;-65
2021/07/27 21:40:45;;;;;;;17.85;11.10;;;21.70;99.90;;;;;;11865427;28;20330;-65
2021/07/27 21:46:32;;;;;;;22.20;12.65;;;21.70;99.90;;;;;;11917822;28;20049;-63
2021/07/27 21:52:19;;;;;;;22.13;12.27;;;21.80;99.90;;;;;;11922658;28;20042;-64
2021/07/27 21:58:08;;;;;;;18.05;11.38;;;21.70;99.90;;;;;;11937946;28;20076;-64
2021/07/27 22:03:54;;;;;;;14.38;11.23;;;21.60;99.90;;;;;;11945431;28;20370;-64
2021/07/27 22:09:41;;;;;;;18.88;11.15;;;21.70;99.90;;;;;;11922176;28;20397;-63
2021/07/27 22:15:30;;;;;;;21.50;10.95;;;21.70;99.90;;;;;;11909731;28;20057;-63
2021/07/27 22:21:16;;;;;;;18.05;10.82;;;21.70;99.90;;;;;;11915320;28;20049;-64
2021/07/27 22:27:03;;;;;;;21.30;11.10;;;21.70;99.90;;;;;;11918012;28;20041;-64
2021/07/27 22:32:52;;;;;;;25.35;10.63;;;21.70;99.90;;;;;;11907995;28;20045;-64
2021/07/27 22:38:39;;;;;;;15.30;9.38;;;21.40;99.90;;;;;;11912504;28;20053;-64
2021/07/27 22:44:26;;;;;;;16.25;10.05;;;21.50;99.90;;;;;;11917269;28;20065;-65
2021/07/27 22:50:15;;;;;;;15.02;10.05;;;21.40;99.90;;;;;;11907439;28;20060;-64
2021/07/27 22:56:02;;;;;;;16.85;9.05;;;21.40;99.90;;;;;;11896549;28;20058;-65
2021/07/27 23:01:49;;;;;;;20.02;8.38;;;21.30;99.90;;;;;;11895633;28;20053;-65
2021/07/27 23:07:41;;;;;;;15.32;8.38;;;21.20;99.90;;;;;;11886348;28;20100;-64
2021/07/27 23:13:28;;;;;;;22.30;8.70;;;21.20;99.90;;;;;;11906663;28;20053;-65
2021/07/27 23:19:14;;;;;;;16.40;8.23;;;21.20;99.90;;;;;;11913844;28;20053;-65
2021/07/27 23:31:05;;;;;;;;;;;21.00;99.90;;;;;;11917352;28;20050;-65
2021/07/27 23:36:51;;;;;;;19.13;7.18;;;21.00;99.90;;;;;;11933001;28;19920;-65
2021/07/27 23:42:40;;;;;;;13.57;6.63;;;21.00;99.90;;;;;;11915237;28;20038;-64
2021/07/27 23:48:27;;;;;;;14.52;6.72;;;21.00;99.90;;;;;;11886358;28;20050;-64
2021/07/27 23:54:14;;;;;;;11.63;6.53;;;21.00;99.90;;;;;;11864843;28;20054;-64
